createdAt,value
2019-04-03T00:02:17.174Z,51675.87
2019-04-03T00:05:26.818Z,51669.95
2019-04-03T00:08:36.665Z,51666.01
2019-04-03T00:11:45.822Z,51685.72
2019-04-03T00:14:54.479Z,51668.97
2019-04-03T00:18:03.140Z,51654.18
2019-04-03T00:21:11.887Z,51676.86
2019-04-03T00:24:22.243Z,51667.98
2019-04-03T00:27:30.907Z,51686.71
2019-04-03T00:30:39.543Z,51685.72
2019-04-03T00:33:50.013Z,51674.88
2019-04-03T00:36:58.696Z,51689.67
2019-04-03T00:40:08.577Z,51683.75
2019-04-03T00:43:17.181Z,51687.70
2019-04-03T00:46:25.924Z,51689.67
2019-04-03T00:49:34.483Z,51667.98
2019-04-03T00:52:44.579Z,51660.10
2019-04-03T00:55:53.253Z,51666.01
2019-04-03T00:59:02.094Z,51656.16
2019-04-03T01:02:10.846Z,51703.46
2019-04-03T01:05:19.499Z,51686.71
2019-04-03T01:08:27.822Z,51699.52
2019-04-03T01:11:37.158Z,51683.75
2019-04-03T01:14:45.743Z,51694.59
2019-04-03T01:18:05.182Z,51677.84
2019-04-03T01:21:13.899Z,51696.57
2019-04-03T01:24:32.768Z,51675.87
2019-04-03T01:27:42.005Z,51685.72
2019-04-03T01:30:51.072Z,51656.16
2019-04-03T01:33:59.847Z,51667.00
2019-04-03T01:37:08.427Z,51666.01
2019-04-03T01:40:27.318Z,51662.07
2019-04-03T01:43:35.986Z,51697.55
2019-04-03T01:46:46.047Z,51719.23
2019-04-03T01:49:54.722Z,51704.45
2019-04-03T01:53:03.361Z,51698.54
2019-04-03T01:56:11.904Z,51692.62
2019-04-03T01:59:20.712Z,51687.70
2019-04-03T02:02:29.346Z,51682.77
2019-04-03T02:05:38.513Z,51676.86
2019-04-03T02:08:47.136Z,51692.62
2019-04-03T02:11:55.776Z,51671.93
2019-04-03T02:15:14.757Z,51667.00
2019-04-03T02:18:24.893Z,51697.55
2019-04-03T02:21:33.850Z,51677.84
2019-04-03T02:24:42.490Z,51693.61
2019-04-03T02:27:51.205Z,51686.71
2019-04-03T02:31:05.789Z,51681.78
2019-04-03T02:34:14.709Z,51678.82
2019-04-03T02:37:22.945Z,51714.30
2019-04-03T02:40:42.098Z,51652.21
2019-04-03T02:43:50.633Z,51681.78
2019-04-03T02:47:01.069Z,51689.67
2019-04-03T02:50:11.560Z,51693.61
2019-04-03T02:53:20.387Z,51712.33
2019-04-03T02:56:29.177Z,51693.61
2019-04-03T02:59:37.842Z,51714.30
2019-04-03T03:02:46.561Z,51689.67
2019-04-03T03:05:55.294Z,51700.51
2019-04-03T03:09:05.326Z,51700.51
2019-04-03T03:12:13.941Z,51667.98
2019-04-03T03:15:23.414Z,51722.19
2019-04-03T03:18:32.270Z,51691.64
2019-04-03T03:21:44.061Z,51699.52
2019-04-03T03:24:52.382Z,51685.72
2019-04-03T03:28:01.246Z,51688.68
2019-04-03T03:31:10.773Z,51667.00
2019-04-03T03:34:45.541Z,51688.68
2019-04-03T03:37:34.317Z,51708.39
2019-04-03T03:40:47.274Z,51723.18
2019-04-03T03:43:54.569Z,51716.28
2019-04-03T03:47:13.968Z,51699.52
2019-04-03T03:50:36.779Z,51696.57
2019-04-03T03:53:47.807Z,51683.75
2019-04-03T03:56:56.626Z,51674.88
2019-04-03T04:00:06.627Z,51707.41
2019-04-03T04:03:16.806Z,51700.51
2019-04-03T04:06:27.933Z,51717.26
2019-04-03T04:09:35.952Z,51727.12
2019-04-03T04:12:46.328Z,51713.32
2019-04-03T04:15:55.330Z,51719.23
2019-04-03T04:19:04.433Z,51696.57
2019-04-03T04:22:15.578Z,51721.21
2019-04-03T04:25:23.781Z,51742.89
2019-04-03T04:28:32.924Z,51711.35
2019-04-03T04:31:43.255Z,51722.19
2019-04-03T04:34:51.899Z,51709.38
2019-04-03T04:38:00.693Z,51694.59
2019-04-03T04:41:09.354Z,51708.39
2019-04-03T04:44:18.050Z,51675.87
2019-04-03T04:47:26.824Z,51704.45
2019-04-03T04:50:35.565Z,51703.46
2019-04-03T04:53:44.204Z,51749.79
2019-04-03T04:56:52.967Z,51705.44
2019-04-03T05:00:06.771Z,51716.28
2019-04-03T05:03:15.402Z,51698.54
2019-04-03T05:06:24.090Z,51686.71
2019-04-03T05:09:34.645Z,51695.58
2019-04-03T05:12:45.317Z,51701.49
2019-04-03T05:16:03.810Z,51689.67
2019-04-03T05:19:22.768Z,51718.25
2019-04-03T05:22:31.478Z,51729.09
2019-04-03T05:25:40.340Z,51727.12
2019-04-03T05:28:57.052Z,51720.22
2019-04-03T05:31:59.373Z,51703.46
2019-04-03T05:35:08.083Z,51736.98
2019-04-03T05:38:16.828Z,51701.49
2019-04-03T05:41:27.543Z,51701.49
2019-04-03T05:44:35.870Z,51724.16
2019-04-03T05:47:44.838Z,51725.15
2019-04-03T05:50:53.591Z,51704.45
2019-04-03T05:54:02.156Z,51723.18
2019-04-03T05:57:13.367Z,51742.89
2019-04-03T06:00:21.555Z,51736.98
2019-04-03T06:03:40.523Z,51717.26
2019-04-03T06:06:40.689Z,51745.84
2019-04-03T06:09:49.341Z,51730.07
2019-04-03T06:12:58.154Z,51715.29
2019-04-03T06:16:06.723Z,51730.07
2019-04-03T06:19:15.366Z,51731.06
2019-04-03T06:22:24.086Z,51754.71
2019-04-03T06:25:42.940Z,51699.52
2019-04-03T06:28:51.763Z,51716.28
2019-04-03T06:32:00.705Z,51740.92
2019-04-03T06:35:13.340Z,51731.06
2019-04-03T06:38:22.367Z,51722.19
2019-04-03T06:41:31.522Z,51708.39
2019-04-03T06:44:40.457Z,51716.28
2019-04-03T06:47:49.151Z,51734.02
2019-04-03T06:50:58.215Z,51715.29
2019-04-03T06:54:08.207Z,51721.21
2019-04-03T06:57:17.045Z,51749.79
2019-04-03T07:00:25.724Z,51735.00
2019-04-03T07:03:35.069Z,51733.03
2019-04-03T07:06:45.247Z,51744.86
2019-04-03T07:10:08.335Z,51705.44
2019-04-03T07:13:29.116Z,51683.75
2019-04-03T07:16:38.570Z,51734.02
2019-04-03T07:19:57.064Z,51728.11
2019-04-03T07:23:06.173Z,51718.25
2019-04-03T07:26:25.287Z,51706.42
2019-04-03T07:29:33.985Z,51735.00
2019-04-03T07:32:42.774Z,51731.06
2019-04-03T07:35:51.428Z,51713.32
2019-04-03T07:39:00.049Z,51738.95
2019-04-03T07:42:08.669Z,51727.12
2019-04-03T07:45:17.443Z,51744.86
2019-04-03T07:48:26.365Z,51738.95
2019-04-03T07:51:35.844Z,51733.03
2019-04-03T07:54:44.761Z,51713.32
2019-04-03T07:58:03.954Z,51753.73
2019-04-03T08:01:12.647Z,51757.67
2019-04-03T08:04:21.986Z,51721.21
2019-04-03T08:07:31.622Z,51732.05
2019-04-03T08:10:40.306Z,51709.38
2019-04-03T08:13:48.997Z,51735.99
2019-04-03T08:16:57.535Z,51726.13
2019-04-03T08:20:07.687Z,51721.21
2019-04-03T08:23:27.565Z,51715.29
2019-04-03T08:26:36.264Z,51750.77
2019-04-03T08:29:44.958Z,51732.05
2019-04-03T08:32:53.785Z,51752.75
2019-04-03T08:36:02.478Z,51733.03
2019-04-03T08:39:11.216Z,51719.23
2019-04-03T08:42:19.830Z,51749.79
2019-04-03T08:45:39.749Z,51754.71
2019-04-03T08:48:48.576Z,51743.87
2019-04-03T08:51:57.346Z,51735.00
2019-04-03T08:55:06.096Z,51745.84
2019-04-03T08:58:14.743Z,51754.71
2019-04-03T09:01:23.392Z,51738.95
2019-04-03T09:04:32.057Z,51741.90
2019-04-03T09:07:40.702Z,51736.98
2019-04-03T09:10:49.343Z,51746.83
2019-04-03T09:13:58.001Z,51729.09
2019-04-03T09:17:06.654Z,51758.66
2019-04-03T09:20:25.609Z,51768.52
2019-04-03T09:23:34.148Z,51732.05
2019-04-03T09:26:42.716Z,51741.90
2019-04-03T09:29:51.331Z,51778.37
2019-04-03T09:33:00.531Z,51738.95
2019-04-03T09:36:09.548Z,51737.96
2019-04-03T09:39:18.078Z,51756.69
2019-04-03T09:42:26.721Z,51752.75
2019-04-03T09:45:35.571Z,51749.79
2019-04-03T09:48:44.587Z,51694.59
2019-04-03T09:51:53.853Z,51736.98
2019-04-03T09:55:13.250Z,51729.09
2019-04-03T09:58:32.923Z,51735.00
2019-04-03T10:01:42.781Z,51739.93
2019-04-03T10:04:51.436Z,51754.71
2019-04-03T10:08:00.416Z,51754.71
2019-04-03T10:11:08.250Z,51767.53
2019-04-03T10:14:17.449Z,51761.61
2019-04-03T10:17:26.232Z,51789.21
2019-04-03T10:20:34.881Z,51759.64
2019-04-03T10:23:43.529Z,51761.61
2019-04-03T10:26:52.148Z,51719.23
2019-04-03T10:30:06.865Z,51770.48
2019-04-03T10:33:15.426Z,51735.00
2019-04-03T10:36:24.165Z,51748.80
2019-04-03T10:39:32.809Z,51750.77
2019-04-03T10:42:41.570Z,51749.79
2019-04-03T10:45:50.429Z,51782.31
2019-04-03T10:49:00.404Z,51751.76
2019-04-03T10:52:12.632Z,51793.15
2019-04-03T10:55:20.251Z,51778.37
2019-04-03T10:58:29.049Z,51751.76
2019-04-03T11:01:37.808Z,51767.53
2019-04-03T11:04:46.497Z,51744.86
2019-04-03T11:07:56.329Z,51782.31
2019-04-03T11:11:05.154Z,51772.46
2019-04-03T11:14:14.047Z,51777.38
2019-04-03T11:17:25.116Z,51765.56
2019-04-03T11:20:35.673Z,51779.36
2019-04-03T11:23:45.208Z,51755.70
2019-04-03T11:26:53.665Z,51752.75
2019-04-03T11:30:02.417Z,51800.05
2019-04-03T11:33:13.433Z,51762.60
2019-04-03T11:36:31.704Z,51779.36
2019-04-03T11:39:40.473Z,51775.41
2019-04-03T11:43:01.134Z,51768.52
2019-04-03T11:46:09.667Z,51783.30
2019-04-03T11:49:19.984Z,51757.67
2019-04-03T11:52:28.752Z,51790.20
2019-04-03T11:55:37.877Z,51744.86
2019-04-03T11:58:46.842Z,51778.37
2019-04-03T12:01:56.662Z,51776.40
2019-04-03T12:05:06.105Z,51765.56
2019-04-03T12:08:15.969Z,51727.12
2019-04-03T12:11:24.801Z,51800.05
2019-04-03T12:14:33.536Z,51782.31
2019-04-03T12:17:42.206Z,51765.56
2019-04-03T12:20:51.017Z,51807.94
2019-04-03T12:23:59.647Z,51827.65
2019-04-03T12:27:08.368Z,51780.34
2019-04-03T12:30:17.345Z,51797.10
2019-04-03T12:33:25.942Z,51782.31
2019-04-03T12:36:46.109Z,51764.57
2019-04-03T12:39:55.257Z,51812.87
2019-04-03T12:43:04.296Z,51785.27
2019-04-03T12:46:41.026Z,51752.75
2019-04-03T12:49:49.082Z,51795.13
2019-04-03T12:52:58.224Z,51767.53
2019-04-03T12:56:08.725Z,51769.50
2019-04-03T12:59:20.243Z,51769.50
2019-04-03T13:02:27.888Z,51764.57
2019-04-03T13:05:38.052Z,51754.71
2019-04-03T13:08:46.920Z,51739.93
2019-04-03T13:11:55.599Z,51779.36
2019-04-03T13:15:06.087Z,51771.47
2019-04-03T13:18:14.968Z,51776.40
2019-04-03T13:21:23.835Z,51784.29
2019-04-03T13:24:32.908Z,51768.52
2019-04-03T13:27:41.821Z,51774.43
2019-04-03T13:30:50.579Z,51772.46
2019-04-03T13:33:59.225Z,51780.34
2019-04-03T13:37:07.849Z,51810.89
2019-04-03T13:40:16.728Z,51746.83
2019-04-03T13:43:25.707Z,51797.10
2019-04-03T13:46:45.362Z,51762.60
2019-04-03T13:50:05.144Z,51780.34
2019-04-03T13:53:13.953Z,51804.98
2019-04-03T13:56:32.627Z,51768.52
2019-04-03T13:59:41.525Z,51801.04
2019-04-03T14:02:50.588Z,51764.57
2019-04-03T14:06:09.757Z,51775.41
2019-04-03T14:09:19.587Z,51814.84
2019-04-03T14:12:28.267Z,51802.02
2019-04-03T14:15:36.984Z,51792.17
2019-04-03T14:18:45.862Z,51785.27
2019-04-03T14:21:54.633Z,51800.05
2019-04-03T14:25:03.376Z,51791.18
2019-04-03T14:28:11.998Z,51791.18
2019-04-03T14:31:32.954Z,51796.11
2019-04-03T14:34:31.230Z,51821.74
2019-04-03T14:37:40.058Z,51804.98
2019-04-03T14:40:48.795Z,51792.17
2019-04-03T14:43:57.483Z,51798.08
2019-04-03T14:47:06.212Z,51815.82
2019-04-03T14:50:25.201Z,51790.20
2019-04-03T14:53:34.959Z,51771.47
2019-04-03T14:56:43.676Z,51797.10
2019-04-03T14:59:52.222Z,51815.82
2019-04-03T15:03:00.977Z,51794.14
2019-04-03T15:06:09.754Z,51792.17
2019-04-03T15:09:18.266Z,51798.08
2019-04-03T15:12:39.796Z,51797.10
2019-04-03T15:15:47.596Z,51804.98
2019-04-03T15:18:56.327Z,51809.91
2019-04-03T15:22:05.034Z,51807.94
2019-04-03T15:25:15.070Z,51799.07
2019-04-03T15:28:24.157Z,51761.61
2019-04-03T15:31:32.872Z,51794.14
2019-04-03T15:34:41.501Z,51785.27
2019-04-03T15:37:50.402Z,51793.15
2019-04-03T15:40:59.828Z,51834.55
2019-04-03T15:44:08.484Z,51786.25
2019-04-03T15:47:20.533Z,51759.64
2019-04-03T15:50:28.551Z,51815.82
2019-04-03T15:53:38.156Z,51827.65
2019-04-03T15:56:46.839Z,51827.65
2019-04-03T15:59:55.535Z,51804.00
2019-04-03T16:03:04.207Z,51838.49
2019-04-03T16:06:13.053Z,51832.58
2019-04-03T16:09:22.275Z,51801.04
2019-04-03T16:12:43.141Z,51833.57
2019-04-03T16:15:54.858Z,51799.07
2019-04-03T16:19:02.187Z,51834.55
2019-04-03T16:22:11.581Z,51849.34
2019-04-03T16:25:20.403Z,51788.23
2019-04-03T16:28:29.675Z,51809.91
2019-04-03T16:31:39.564Z,51833.57
2019-04-03T16:34:58.385Z,51804.00
2019-04-03T16:38:07.160Z,51811.88
2019-04-03T16:41:15.801Z,51825.68
2019-04-03T16:44:26.264Z,51837.51
2019-04-03T16:47:34.752Z,51824.70
2019-04-03T16:50:43.366Z,51837.51
2019-04-03T16:53:52.042Z,51819.77
2019-04-03T16:57:03.473Z,51834.55
2019-04-03T17:00:13.374Z,51848.35
2019-04-03T17:03:21.902Z,51817.80
2019-04-03T17:06:30.526Z,51808.92
2019-04-03T17:09:39.529Z,51813.85
2019-04-03T17:12:50.081Z,51811.88
2019-04-03T17:15:58.564Z,51823.71
2019-04-03T17:19:07.356Z,51792.17
2019-04-03T17:22:15.967Z,51831.59
2019-04-03T17:25:26.969Z,51816.81
2019-04-03T17:28:34.949Z,51826.66
2019-04-03T17:31:57.156Z,51781.33
2019-04-03T17:35:06.738Z,51843.42
2019-04-03T17:38:25.161Z,51853.28
2019-04-03T17:41:33.788Z,51830.61
2019-04-03T17:44:42.834Z,51824.70
2019-04-03T17:47:54.033Z,51844.41
2019-04-03T17:51:03.124Z,51838.49
2019-04-03T17:54:13.968Z,51815.82
2019-04-03T17:57:22.715Z,51822.72
2019-04-03T18:00:31.626Z,51829.62
2019-04-03T18:03:40.243Z,51843.42
2019-04-03T18:06:48.867Z,51805.96
2019-04-03T18:09:57.501Z,51840.46
2019-04-03T18:13:06.339Z,51827.65
2019-04-03T18:16:14.972Z,51837.51
2019-04-03T18:19:23.741Z,51796.11
2019-04-03T18:22:32.280Z,51837.51
2019-04-03T18:25:40.939Z,51832.58
2019-04-03T18:28:59.749Z,51827.65
2019-04-03T18:32:08.556Z,51861.16
2019-04-03T18:35:17.494Z,51829.62
2019-04-03T18:38:26.046Z,51832.58
2019-04-03T18:41:34.685Z,51859.19
2019-04-03T18:44:43.364Z,51853.28
2019-04-03T18:47:51.992Z,51823.71
2019-04-03T18:51:00.526Z,51852.29
2019-04-03T18:54:09.794Z,51830.61
2019-04-03T18:57:19.469Z,51827.65
2019-04-03T19:00:38.320Z,51821.74
2019-04-03T19:03:46.961Z,51851.31
2019-04-03T19:06:55.724Z,51827.65
2019-04-03T19:10:07.398Z,51819.77
2019-04-03T19:13:15.007Z,51840.46
2019-04-03T19:16:29.283Z,51814.84
2019-04-03T19:19:33.937Z,51838.49
2019-04-03T19:22:42.578Z,51839.48
2019-04-03T19:25:51.209Z,51841.45
2019-04-03T19:28:59.901Z,51836.52
2019-04-03T19:32:11.835Z,51868.06
2019-04-03T19:35:18.775Z,51842.43
2019-04-03T19:38:27.674Z,51861.16
2019-04-03T19:41:46.522Z,51842.43
2019-04-03T19:44:55.223Z,51867.08
2019-04-03T19:48:03.993Z,51842.43
2019-04-03T19:51:12.691Z,51869.05
2019-04-03T19:54:21.424Z,51842.43
2019-04-03T19:57:31.888Z,51866.09
2019-04-03T20:00:40.550Z,51856.23
2019-04-03T20:03:49.203Z,51867.08
2019-04-03T20:06:57.814Z,51882.85
2019-04-03T20:10:09.003Z,51821.74
2019-04-03T20:13:17.561Z,51849.34
2019-04-03T20:16:26.287Z,51845.39
2019-04-03T20:19:34.946Z,51865.11
2019-04-03T20:22:43.549Z,51846.38
2019-04-03T20:25:51.184Z,51813.85
2019-04-03T20:29:02.138Z,51860.18
2019-04-03T20:32:10.067Z,51851.31
2019-04-03T20:35:18.909Z,51859.19
2019-04-03T20:38:27.978Z,51843.42
2019-04-03T20:41:36.749Z,51862.15
2019-04-03T20:44:47.939Z,51880.87
2019-04-03T20:47:57.243Z,51874.96
2019-04-03T20:51:08.785Z,51837.51
2019-04-03T20:54:16.379Z,51861.16
2019-04-03T20:57:25.041Z,51871.02
2019-04-03T21:00:33.793Z,51862.15
2019-04-03T21:03:43.751Z,51826.66
2019-04-03T21:06:52.702Z,51861.16
2019-04-03T21:10:12.474Z,51831.59
2019-04-03T21:13:21.004Z,51868.06
2019-04-03T21:16:33.446Z,51824.70
2019-04-03T21:19:41.179Z,51872.00
2019-04-03T21:22:50.754Z,51854.26
2019-04-03T21:25:58.859Z,51869.05
2019-04-03T21:29:07.572Z,51840.46
2019-04-03T21:32:16.113Z,51843.42
2019-04-03T21:35:25.452Z,51869.05
2019-04-03T21:38:34.362Z,51873.98
2019-04-03T21:41:55.995Z,51822.72
2019-04-03T21:45:07.304Z,51862.15
2019-04-03T21:48:14.480Z,51856.23
2019-04-03T21:51:35.135Z,51816.81
2019-04-03T21:54:43.718Z,51839.48
2019-04-03T21:57:52.316Z,51847.36
2019-04-03T22:01:22.403Z,51846.38
2019-04-03T22:04:30.958Z,51880.87
2019-04-03T22:07:39.610Z,51843.42
2019-04-03T22:10:50.365Z,51857.22
2019-04-03T22:13:58.384Z,51869.05
2019-04-03T22:17:06.935Z,51872.99
2019-04-03T22:20:15.560Z,51869.05
2019-04-03T22:23:37.072Z,51882.85
2019-04-03T22:26:45.762Z,51859.19
2019-04-03T22:29:54.403Z,51847.36
2019-04-03T22:33:03.086Z,51892.70
2019-04-03T22:36:11.569Z,51868.06
2019-04-03T22:39:20.281Z,51872.99
2019-04-03T22:42:28.912Z,51879.89
2019-04-03T22:45:37.508Z,51866.09
2019-04-03T22:48:46.220Z,51873.98
2019-04-03T22:52:05.136Z,51833.57
2019-04-03T22:55:14.889Z,51895.66
2019-04-03T22:58:23.976Z,51878.90
2019-04-03T23:01:32.647Z,51891.72
2019-04-03T23:04:42.102Z,51883.83
2019-04-03T23:07:52.096Z,51845.39
2019-04-03T23:11:01.522Z,51896.64
2019-04-03T23:14:20.585Z,51874.96
2019-04-03T23:17:29.330Z,51863.13
2019-04-03T23:20:48.703Z,51834.55
2019-04-03T23:23:58.416Z,51865.11
2019-04-03T23:27:07.072Z,51884.82
2019-04-03T23:30:16.209Z,51868.06
2019-04-03T23:33:24.868Z,51871.02
2019-04-03T23:36:33.523Z,51870.03
2019-04-03T23:39:42.613Z,51878.90
2019-04-03T23:42:51.299Z,51893.69
2019-04-03T23:46:00.193Z,51833.57
2019-04-03T23:49:09.340Z,51886.79
2019-04-03T23:52:17.955Z,51910.45
2019-04-03T23:55:26.602Z,51863.13
2019-04-03T23:58:35.245Z,51878.90
